RJBBRJGG

Guest
Details From RJBB - KANSAI INTL
To RJGG - CHUBU CENTRAIR INTL
Flight Number -
Tags generated
Created
Modified
Stats Distance 82 nm / 151 km
Max Altitude 3,900 ft / 1,189 m
Waypoints 3
Social Downloads 6
Likes 0
Share VATSIM

Download

Looking for another format? Having issues loading an existing format? Contact us
Advertisement - Login to hide

Notes

Basic altitude profile: - Ascent Rate: 2500ft/min - Ascent Speed: 250kts - Cruise Altitude: 35000ft - Cruise Speed: 420kts - Descent Rate: 1500ft/min - Descent Speed: 250kts Options: - Use NATs: yes - Use PACOTS: yes - Use low airways: yes - Use high airways: no

Route

RJBB SKE RJGG

ID Type Via Altitude Latitude Longitude Leg Dist Tot Dist Heading (true) Name
O RJBB APT - 0 ft / 0 m 34.43362˚ 135.23360˚ - 0 nm - KANSAI INTL
SKE VOR - 3,900 ft / 1,189 m 34.49195˚ 135.44833˚ 11 nm 11 nm 72° / 72° SHINODA VOR-DME
O RJGG APT - 0 ft / 0 m 34.85841˚ 136.80541˚ 70 nm 81 nm 71° / 72° CHUBU CENTRAIR INTL

Altitude Profile

Advertisement - Login to hide

RJBB

Details ICAO RJBB (KIX)
Name KANSAI INTL
Region Japan
Timezone Asia/Tokyo (UTC+9.0)
Stats Elevation 26 ft / 8 m (AMSL)
Location 34.433619° 135.233598°
Runways 2
Magnetic Variation 7.581° W

METAR

RJBB 141900Z AUTO 08005KT 9999 FEW048 SCT130 BKN150 06/01 Q1027 NOSIG

Decode

TAF

TAF RJBB 141707Z 1418/1600 03008KT 9999 FEW020 BKN040 BECMG 1509/1512 19005KT

Decode

Departure Runways

ID Width Length Bearing (true) Bearing (mag) Surface Threshold Offset Overrun Length
06L 200 ft / 61 m 13,121 ft / 3,999 m 50.86° 58.44° Asphalt 0 ft / 0 m 200 ft / 61 m
06R 200 ft / 61 m 11,481 ft / 3,499 m 50.86° 58.44° Asphalt 0 ft / 0 m 200 ft / 61 m
24L 200 ft / 61 m 11,481 ft / 3,499 m 230.88° 238.46° Asphalt 0 ft / 0 m 200 ft / 61 m
24R 200 ft / 61 m 13,121 ft / 3,999 m 230.88° 238.46° Asphalt 0 ft / 0 m 200 ft / 61 m

RJGG

Details ICAO RJGG (NGO)
Name CHUBU CENTRAIR INTL
Region Japan
Timezone Asia/Tokyo (UTC+9.0)
Stats Elevation 15 ft / 5 m (AMSL)
Location 34.858414° 136.805408°
Runways 1
Magnetic Variation 7.581° W

METAR

RJGG 141900Z 35010KT 9999 FEW020 BKN160 05/01 Q1025 NOSIG

Decode

TAF

TAF RJGG 141705Z 1418/1600 36012KT 9999 FEW020

Decode

Destination Runways

ID Width Length Bearing (true) Bearing (mag) Surface Threshold Offset Overrun Length
18 197 ft / 60 m 11,511 ft / 3,509 m 168.81° 176.39° Asphalt 0 ft / 0 m 197 ft / 60 m
36 197 ft / 60 m 11,511 ft / 3,509 m 348.81° 356.39° Asphalt 0 ft / 0 m 197 ft / 60 m

Approach Navaids

Runway Type Ident Frequency Range Bearing (true) Bearing (mag) Slope Elevation
18 Localiser ICY 109.70 MHz 25 nm / 46 km 168.79° 176.37° - 12 ft / 4 m (AMSL)
18 Glidescope ICY 109.70 MHz 25 nm / 46 km 176.00° 183.58° 3.00° 12 ft / 4 m (AMSL)
36 Localiser ICX 111.90 MHz 25 nm / 46 km 348.79° 356.37° - 12 ft / 4 m (AMSL)
36 Glidescope ICX 111.90 MHz 25 nm / 46 km 356.00° 3.58° 3.00° 12 ft / 4 m (AMSL)

Popular Alternatives